McKeesport, Pennsylvania
Current Conditions -  °F | °C
As of 12:53 AM on Wednesday 22 Oct 2014 (Local Time) from KAGC Reporting Station
Light Rain Light Rain  
Wind Chill: 43°   Ceiling: 500
Heat Index: 47°   Visibility: 4mi
Dew Point: 44°   Wind: 8mph
Humidity: 90%   Direction: 320°NW
Pressure: 30.01"   Gusts: NA
Location:  40.35°N, 79.86°W
Report Text: KAGC 220453Z 32007KT 4SM -RA BR BKN005 OVC010 08/07 A3001 RMK AO2 CIG 003V007 SLP168 P0001 T00830067 401280083
Loading
Personal Weather Stations






























Interactive Weather Map New forecast layout! Learn more

10-Day Weather Forecast

Advertisements
Track Severe Weather on mobile